sensor_id;sensor_type;location;lat;lon;timestamp;pressure;altitude;pressure_sealevel;temperature;humidity
29163;BME280;20331;53.144;8.208;2023-03-14T00:01:16;98902.47;;;12.21;73.64
29163;BME280;20331;53.144;8.208;2023-03-14T00:11:38;98903.19;;;12.23;73.99
29163;BME280;20331;53.144;8.208;2023-03-14T00:21:59;98886.06;;;12.20;74.33
29163;BME280;20331;53.144;8.208;2023-03-14T00:32:21;98891.25;;;12.20;74.54
29163;BME280;20331;53.144;8.208;2023-03-14T00:42:42;98889.63;;;12.19;74.85
29163;BME280;20331;53.144;8.208;2023-03-14T00:53:03;98873.84;;;12.22;75.88
29163;BME280;20331;53.144;8.208;2023-03-14T01:03:25;98866.16;;;12.33;76.69
29163;BME280;20331;53.144;8.208;2023-03-14T01:13:46;98847.59;;;12.39;77.63
29163;BME280;20331;53.144;8.208;2023-03-14T01:24:10;98836.06;;;12.43;78.49
29163;BME280;20331;53.144;8.208;2023-03-14T01:34:32;98824.03;;;12.42;78.60
29163;BME280;20331;53.144;8.208;2023-03-14T01:44:57;98814.38;;;12.44;79.17
29163;BME280;20331;53.144;8.208;2023-03-14T01:55:22;98783.00;;;12.47;79.39
29163;BME280;20331;53.144;8.208;2023-03-14T02:05:45;98759.19;;;12.42;79.09
29163;BME280;20331;53.144;8.208;2023-03-14T02:16:08;98775.56;;;12.43;79.58
29163;BME280;20331;53.144;8.208;2023-03-14T02:26:40;98770.28;;;12.44;79.29
29163;BME280;20331;53.144;8.208;2023-03-14T02:37:04;98800.97;;;12.50;78.76
29163;BME280;20331;53.144;8.208;2023-03-14T02:47:27;98824.25;;;12.39;74.42
29163;BME280;20331;53.144;8.208;2023-03-14T02:57:49;98830.59;;;12.10;74.52
29163;BME280;20331;53.144;8.208;2023-03-14T03:08:11;98821.06;;;11.73;78.55
29163;BME280;20331;53.144;8.208;2023-03-14T03:18:32;98812.13;;;11.12;82.55
29163;BME280;20331;53.144;8.208;2023-03-14T03:28:54;98773.81;;;10.78;83.34
29163;BME280;20331;53.144;8.208;2023-03-14T03:39:15;98790.31;;;10.63;84.70
29163;BME280;20331;53.144;8.208;2023-03-14T03:49:36;98788.88;;;10.45;86.08
29163;BME280;20331;53.144;8.208;2023-03-14T03:59:58;98772.72;;;10.42;88.19
29163;BME280;20331;53.144;8.208;2023-03-14T04:10:19;98764.19;;;10.54;87.74
29163;BME280;20331;53.144;8.208;2023-03-14T04:20:40;98770.78;;;10.72;87.78
29163;BME280;20331;53.144;8.208;2023-03-14T04:31:08;98776.56;;;10.89;86.45
29163;BME280;20331;53.144;8.208;2023-03-14T04:41:30;98767.25;;;10.99;84.86
29163;BME280;20331;53.144;8.208;2023-03-14T04:51:52;98770.78;;;10.98;84.12
29163;BME280;20331;53.144;8.208;2023-03-14T05:02:13;98769.50;;;10.91;84.12
29163;BME280;20331;53.144;8.208;2023-03-14T05:12:35;98752.75;;;10.97;82.47
29163;BME280;20331;53.144;8.208;2023-03-14T05:22:56;98749.84;;;10.89;82.46
29163;BME280;20331;53.144;8.208;2023-03-14T05:33:17;98732.00;;;10.84;82.78
29163;BME280;20331;53.144;8.208;2023-03-14T05:43:39;98746.31;;;10.90;82.83
29163;BME280;20331;53.144;8.208;2023-03-14T05:54:00;98732.75;;;10.86;83.23
29163;BME280;20331;53.144;8.208;2023-03-14T06:04:22;98735.94;;;10.77;84.90
29163;BME280;20331;53.144;8.208;2023-03-14T06:14:43;98741.06;;;10.65;86.06
29163;BME280;20331;53.144;8.208;2023-03-14T06:25:05;98738.91;;;10.71;85.01
29163;BME280;20331;53.144;8.208;2023-03-14T06:35:27;98733.59;;;10.60;87.06
29163;BME280;20331;53.144;8.208;2023-03-14T06:45:48;98728.41;;;10.60;85.90
29163;BME280;20331;53.144;8.208;2023-03-14T06:56:10;98735.09;;;10.77;84.30
29163;BME280;20331;53.144;8.208;2023-03-14T07:06:31;98743.00;;;10.88;84.03
29163;BME280;20331;53.144;8.208;2023-03-14T07:16:53;98752.75;;;10.97;83.09
29163;BME280;20331;53.144;8.208;2023-03-14T07:27:15;98754.09;;;11.02;84.30
29163;BME280;20331;53.144;8.208;2023-03-14T07:37:36;98762.19;;;10.98;84.79
29163;BME280;20331;53.144;8.208;2023-03-14T07:47:58;98772.81;;;10.93;85.36
29163;BME280;20331;53.144;8.208;2023-03-14T07:58:19;98781.31;;;10.95;85.72
29163;BME280;20331;53.144;8.208;2023-03-14T08:08:42;98796.16;;;11.06;84.75
29163;BME280;20331;53.144;8.208;2023-03-14T08:19:04;98822.44;;;11.00;86.25
29163;BME280;20331;53.144;8.208;2023-03-14T08:29:25;98821.38;;;11.02;85.81
29163;BME280;20331;53.144;8.208;2023-03-14T08:39:47;98936.78;;;10.22;83.70
29163;BME280;20331;53.144;8.208;2023-03-14T08:50:08;99006.09;;;8.75;86.04
29163;BME280;20331;53.144;8.208;2023-03-14T09:00:33;99065.53;;;7.87;85.93
29163;BME280;20331;53.144;8.208;2023-03-14T09:10:55;99125.38;;;7.18;86.41
29163;BME280;20331;53.144;8.208;2023-03-14T09:21:16;99177.50;;;6.39;85.89
29163;BME280;20331;53.144;8.208;2023-03-14T09:31:38;99201.59;;;6.15;88.86
29163;BME280;20331;53.144;8.208;2023-03-14T09:42:01;99242.69;;;6.15;89.22
29163;BME280;20331;53.144;8.208;2023-03-14T09:52:32;99295.25;;;6.05;88.66
29163;BME280;20331;53.144;8.208;2023-03-14T10:02:55;99347.25;;;6.10;88.19
29163;BME280;20331;53.144;8.208;2023-03-14T10:23:47;99403.09;;;6.28;87.89
29163;BME280;20331;53.144;8.208;2023-03-14T10:34:12;99438.19;;;6.52;86.64
29163;BME280;20331;53.144;8.208;2023-03-14T10:44:36;99441.84;;;6.70;88.44
29163;BME280;20331;53.144;8.208;2023-03-14T10:55:00;99454.81;;;7.11;86.34
29163;BME280;20331;53.144;8.208;2023-03-14T11:26:24;99532.72;;;8.01;82.69
29163;BME280;20331;53.144;8.208;2023-03-14T11:37:01;99569.41;;;8.28;78.53
29163;BME280;20331;53.144;8.208;2023-03-14T11:47:44;99610.94;;;7.99;78.14
29163;BME280;20331;53.144;8.208;2023-03-14T12:08:38;99686.19;;;8.07;70.88
29163;BME280;20331;53.144;8.208;2023-03-14T12:29:57;99767.50;;;7.91;68.78
29163;BME280;20331;53.144;8.208;2023-03-14T12:40:21;99787.66;;;8.03;68.88
29163;BME280;20331;53.144;8.208;2023-03-14T12:51:00;99816.66;;;8.08;65.10
29163;BME280;20331;53.144;8.208;2023-03-14T13:01:23;99870.72;;;7.85;63.12
29163;BME280;20331;53.144;8.208;2023-03-14T13:11:44;99878.41;;;8.11;61.76
29163;BME280;20331;53.144;8.208;2023-03-14T13:22:12;99911.09;;;8.09;61.60
29163;BME280;20331;53.144;8.208;2023-03-14T13:32:39;99944.44;;;7.89;66.83
29163;BME280;20331;53.144;8.208;2023-03-14T13:43:04;99962.91;;;7.75;65.48
29163;BME280;20331;53.144;8.208;2023-03-14T13:53:26;99989.88;;;7.90;62.09
29163;BME280;20331;53.144;8.208;2023-03-14T14:03:48;100020.41;;;8.02;62.10
29163;BME280;20331;53.144;8.208;2023-03-14T14:14:18;100057.28;;;8.02;63.83
29163;BME280;20331;53.144;8.208;2023-03-14T14:24:43;100098.75;;;7.95;60.61
29163;BME280;20331;53.144;8.208;2023-03-14T14:35:04;100116.81;;;7.93;59.75
29163;BME280;20331;53.144;8.208;2023-03-14T14:45:26;100158.38;;;7.83;58.53
29163;BME280;20331;53.144;8.208;2023-03-14T14:55:52;100183.50;;;7.75;56.63
29163;BME280;20331;53.144;8.208;2023-03-14T15:06:15;100197.44;;;7.97;59.45
29163;BME280;20331;53.144;8.208;2023-03-14T15:16:37;100216.75;;;8.11;59.73
29163;BME280;20331;53.144;8.208;2023-03-14T15:26:59;100229.25;;;8.25;61.12
29163;BME280;20331;53.144;8.208;2023-03-14T15:37:21;100245.66;;;8.21;53.92
29163;BME280;20331;53.144;8.208;2023-03-14T15:47:42;100282.66;;;7.89;58.83
29163;BME280;20331;53.144;8.208;2023-03-14T15:58:04;100300.13;;;7.80;58.71
29163;BME280;20331;53.144;8.208;2023-03-14T16:08:26;100328.34;;;7.51;62.52
29163;BME280;20331;53.144;8.208;2023-03-14T16:18:49;100351.56;;;7.81;63.14
29163;BME280;20331;53.144;8.208;2023-03-14T16:29:10;100374.59;;;7.86;60.70
29163;BME280;20331;53.144;8.208;2023-03-14T16:39:32;100405.34;;;7.60;60.65
29163;BME280;20331;53.144;8.208;2023-03-14T16:49:53;100426.88;;;7.21;64.16
29163;BME280;20331;53.144;8.208;2023-03-14T17:00:15;100472.03;;;6.95;64.91
29163;BME280;20331;53.144;8.208;2023-03-14T17:10:37;100534.38;;;6.64;65.15
29163;BME280;20331;53.144;8.208;2023-03-14T17:21:00;100547.13;;;6.23;65.74
29163;BME280;20331;53.144;8.208;2023-03-14T17:31:22;100573.53;;;5.76;69.67
29163;BME280;20331;53.144;8.208;2023-03-14T17:41:45;100573.09;;;5.45;69.61
29163;BME280;20331;53.144;8.208;2023-03-14T17:52:07;100602.16;;;5.47;68.65
29163;BME280;20331;53.144;8.208;2023-03-14T18:02:32;100627.94;;;5.35;68.68
29163;BME280;20331;53.144;8.208;2023-03-14T18:12:56;100664.09;;;5.16;69.76
29163;BME280;20331;53.144;8.208;2023-03-14T18:23:17;100662.53;;;5.01;71.55
29163;BME280;20331;53.144;8.208;2023-03-14T18:33:38;100664.28;;;4.99;71.90
29163;BME280;20331;53.144;8.208;2023-03-14T18:44:02;100677.25;;;4.82;72.00
29163;BME280;20331;53.144;8.208;2023-03-14T18:54:24;100693.50;;;4.78;73.04
29163;BME280;20331;53.144;8.208;2023-03-14T19:04:46;100738.88;;;4.70;74.17
29163;BME280;20331;53.144;8.208;2023-03-14T19:15:08;100741.66;;;4.39;77.43
29163;BME280;20331;53.144;8.208;2023-03-14T19:25:29;100745.09;;;4.35;77.94
29163;BME280;20331;53.144;8.208;2023-03-14T19:35:51;100775.84;;;4.32;78.65
29163;BME280;20331;53.144;8.208;2023-03-14T19:46:12;100792.09;;;4.23;78.58
29163;BME280;20331;53.144;8.208;2023-03-14T19:56:34;100800.63;;;4.28;78.34
29163;BME280;20331;53.144;8.208;2023-03-14T20:06:55;100819.44;;;4.21;79.02
29163;BME280;20331;53.144;8.208;2023-03-14T20:17:16;100839.94;;;4.12;77.67
29163;BME280;20331;53.144;8.208;2023-03-14T20:27:39;100838.28;;;4.03;77.77
29163;BME280;20331;53.144;8.208;2023-03-14T20:38:00;100851.09;;;4.02;77.77
29163;BME280;20331;53.144;8.208;2023-03-14T20:48:22;100850.22;;;4.00;78.21
29163;BME280;20331;53.144;8.208;2023-03-14T20:58:44;100863.03;;;3.98;77.92
29163;BME280;20331;53.144;8.208;2023-03-14T21:09:05;100863.94;;;3.90;79.71
29163;BME280;20331;53.144;8.208;2023-03-14T21:19:27;100869.91;;;3.86;79.48
29163;BME280;20331;53.144;8.208;2023-03-14T21:29:51;100889.47;;;4.02;79.50
29163;BME280;20331;53.144;8.208;2023-03-14T21:40:13;100887.78;;;3.98;79.03
29163;BME280;20331;53.144;8.208;2023-03-14T21:50:34;100891.22;;;3.91;79.10
29163;BME280;20331;53.144;8.208;2023-03-14T22:01:00;100891.19;;;3.92;79.24
29163;BME280;20331;53.144;8.208;2023-03-14T22:11:22;100892.03;;;3.97;80.55
29163;BME280;20331;53.144;8.208;2023-03-14T22:21:44;100886.91;;;3.97;80.14
29163;BME280;20331;53.144;8.208;2023-03-14T22:32:05;100876.72;;;3.84;79.40
29163;BME280;20331;53.144;8.208;2023-03-14T22:42:27;100883.56;;;3.68;79.84
29163;BME280;20331;53.144;8.208;2023-03-14T22:52:48;100893.81;;;3.59;79.34
29163;BME280;20331;53.144;8.208;2023-03-14T23:03:10;100908.31;;;3.56;79.15
29163;BME280;20331;53.144;8.208;2023-03-14T23:13:32;100909.16;;;3.50;79.17
29163;BME280;20331;53.144;8.208;2023-03-14T23:23:54;100916.00;;;3.45;78.76
29163;BME280;20331;53.144;8.208;2023-03-14T23:34:15;100915.13;;;3.42;78.54
29163;BME280;20331;53.144;8.208;2023-03-14T23:44:36;100932.19;;;3.37;78.41
29163;BME280;20331;53.144;8.208;2023-03-14T23:54:58;100927.06;;;3.37;78.23
